Date,TemperatureHighF,TemperatureAvgF,TemperatureLowF,DewpointHighF,DewpointAvgF,DewpointLowF,HumidityHigh,HumidityAvg,HumidityLow,PressureMaxIn,PressureMinIn,WindSpeedMaxMPH,WindSpeedAvgMPH,GustSpeedMaxMPH,PrecipitationSumIn
2013-5-1,37.3,33.4,31.0,30.3,27.6,25.8,82,79,75,30.28,30.21,4,1,4,0.00
2013-5-5,62.1,57.5,53.1,44.7,43.4,41.4,65,59,53,29.56,29.52,3,1,3,0.00
2013-5-6,83.2,62.4,42.5,57.9,47.0,36.0,79,60,30,29.61,29.52,15,3,15,0.00
2013-5-7,70.2,57.7,47.9,55.0,48.8,41.3,83,73,56,29.78,29.61,14,3,14,0.00
2013-5-8,71.5,58.6,50.8,54.9,50.0,45.3,89,74,51,29.90,29.78,12,3,12,0.00
2013-5-9,76.0,59.4,48.2,57.6,49.7,42.7,90,73,43,29.96,29.84,13,3,13,0.00
2013-5-10,81.4,63.4,45.5,60.2,51.2,40.8,88,67,38,29.94,29.84,10,2,10,0.00
2013-5-11,82.3,65.9,53.3,62.5,54.7,47.8,84,69,42,29.95,29.75,12,3,12,0.00
2013-5-12,74.9,64.4,59.0,56.9,54.1,50.9,87,70,46,29.85,29.77,20,3,20,0.00
2013-5-13,64.4,56.6,43.6,55.7,48.8,37.8,86,76,58,29.96,29.73,21,4,21,0.10
2013-5-14,65.3,52.7,41.6,48.2,42.8,36.6,87,71,46,29.97,29.85,7,2,7,0.00
2013-5-15,59.4,51.1,42.5,51.5,45.2,37.4,88,80,70,29.87,29.75,12,3,12,0.03
2013-5-16,70.9,57.0,49.1,55.6,50.7,45.7,90,80,54,29.75,29.63,8,2,8,0.15
2013-5-17,63.0,55.4,47.3,52.2,48.0,40.6,88,77,63,29.83,29.72,11,3,11,0.04
2013-5-18,58.5,53.4,45.9,51.7,48.0,40.6,90,82,74,30.02,29.83,6,2,6,0.10
2013-5-19,63.0,55.2,48.6,50.5,47.0,41.7,92,75,53,30.15,30.03,8,4,8,0.00
2013-5-20,70.6,55.2,44.6,54.1,46.2,39.1,87,73,52,30.11,29.68,9,3,9,0.04
2013-5-21,54.5,49.4,45.4,48.3,43.3,39.5,88,80,65,29.68,29.56,12,2,12,0.40
2013-5-22,50.9,46.2,43.7,46.8,42.4,39.5,88,86,82,29.68,29.62,10,3,10,0.75
2013-5-23,50.8,47.1,43.6,47.6,44.3,40.2,91,90,88,29.72,29.68,14,4,14,1.24
2013-5-24,58.7,51.5,45.5,53.8,47.1,43.1,92,85,72,29.82,29.70,13,4,13,0.08
2013-5-25,59.0,52.2,45.4,51.4,47.5,42.4,90,84,73,29.81,29.70,7,2,7,0.02
2013-5-26,64.1,55.6,49.5,56.3,50.2,46.1,92,83,66,29.74,29.68,11,2,11,0.22
2013-5-27,61.9,55.4,50.6,57.7,50.7,47.1,92,84,74,29.71,29.44,19,6,19,0.60
2013-5-28,64.3,55.6,50.8,53.5,49.0,46.3,89,79,63,29.64,29.50,17,4,17,0.04
2013-5-29,59.0,53.3,49.1,51.8,48.1,44.1,92,83,69,29.76,29.39,13,2,13,0.72
2013-5-30,63.4,52.6,45.5,50.9,46.3,41.7,90,80,61,30.00,29.76,12,3,12,0.18
2013-5-31,67.5,55.7,46.1,51.2,46.4,42.6,88,72,51,30.07,29.98,10,2,10,0.00